sensor_id;sensor_type;location;lat;lon;timestamp;P1;durP1;ratioP1;P2;durP2;ratioP2
15177;SDS011;7689;53.612;-2.416;2022-11-14T00:01:32;20.10;;;14.53;;
15177;SDS011;7689;53.612;-2.416;2022-11-14T00:03:58;17.40;;;13.73;;
15177;SDS011;7689;53.612;-2.416;2022-11-14T00:06:24;16.97;;;12.13;;
15177;SDS011;7689;53.612;-2.416;2022-11-14T00:08:49;16.83;;;11.20;;
15177;SDS011;7689;53.612;-2.416;2022-11-14T00:11:15;15.03;;;10.83;;
15177;SDS011;7689;53.612;-2.416;2022-11-14T00:13:40;12.60;;;8.83;;
15177;SDS011;7689;53.612;-2.416;2022-11-14T00:16:06;15.57;;;10.00;;
15177;SDS011;7689;53.612;-2.416;2022-11-14T00:18:32;15.93;;;9.57;;
15177;SDS011;7689;53.612;-2.416;2022-11-14T00:20:57;14.13;;;9.30;;
15177;SDS011;7689;53.612;-2.416;2022-11-14T00:23:23;14.07;;;9.67;;
15177;SDS011;7689;53.612;-2.416;2022-11-14T00:25:48;15.87;;;10.27;;
15177;SDS011;7689;53.612;-2.416;2022-11-14T00:28:14;12.60;;;8.77;;
15177;SDS011;7689;53.612;-2.416;2022-11-14T00:30:40;13.93;;;9.53;;
15177;SDS011;7689;53.612;-2.416;2022-11-14T00:33:05;15.83;;;10.13;;
15177;SDS011;7689;53.612;-2.416;2022-11-14T00:35:31;14.83;;;9.20;;
15177;SDS011;7689;53.612;-2.416;2022-11-14T00:37:57;13.20;;;9.63;;
15177;SDS011;7689;53.612;-2.416;2022-11-14T00:40:22;14.13;;;8.87;;
15177;SDS011;7689;53.612;-2.416;2022-11-14T00:42:48;13.97;;;9.17;;
15177;SDS011;7689;53.612;-2.416;2022-11-14T00:45:14;16.23;;;10.33;;
15177;SDS011;7689;53.612;-2.416;2022-11-14T00:47:39;16.33;;;10.07;;
15177;SDS011;7689;53.612;-2.416;2022-11-14T00:50:05;14.80;;;9.77;;
15177;SDS011;7689;53.612;-2.416;2022-11-14T00:52:31;15.00;;;9.43;;
15177;SDS011;7689;53.612;-2.416;2022-11-14T00:54:56;15.23;;;9.60;;
15177;SDS011;7689;53.612;-2.416;2022-11-14T00:57:22;15.13;;;9.13;;
15177;SDS011;7689;53.612;-2.416;2022-11-14T00:59:48;17.13;;;9.70;;
15177;SDS011;7689;53.612;-2.416;2022-11-14T01:02:13;18.50;;;11.33;;
15177;SDS011;7689;53.612;-2.416;2022-11-14T01:04:39;15.83;;;10.17;;
15177;SDS011;7689;53.612;-2.416;2022-11-14T01:07:05;20.20;;;10.50;;
15177;SDS011;7689;53.612;-2.416;2022-11-14T01:09:30;15.37;;;10.17;;
15177;SDS011;7689;53.612;-2.416;2022-11-14T01:11:56;17.33;;;10.40;;
15177;SDS011;7689;53.612;-2.416;2022-11-14T01:14:21;14.20;;;9.20;;
15177;SDS011;7689;53.612;-2.416;2022-11-14T01:16:47;12.90;;;8.30;;
15177;SDS011;7689;53.612;-2.416;2022-11-14T01:19:13;11.03;;;7.87;;
15177;SDS011;7689;53.612;-2.416;2022-11-14T01:21:38;13.93;;;9.07;;
15177;SDS011;7689;53.612;-2.416;2022-11-14T01:24:04;13.13;;;8.20;;
15177;SDS011;7689;53.612;-2.416;2022-11-14T01:26:30;15.33;;;8.93;;
15177;SDS011;7689;53.612;-2.416;2022-11-14T01:28:56;13.43;;;9.10;;
15177;SDS011;7689;53.612;-2.416;2022-11-14T01:31:22;14.00;;;9.37;;
15177;SDS011;7689;53.612;-2.416;2022-11-14T01:33:50;10.43;;;8.03;;
15177;SDS011;7689;53.612;-2.416;2022-11-14T01:36:17;15.20;;;9.60;;
15177;SDS011;7689;53.612;-2.416;2022-11-14T01:38:43;9.53;;;7.97;;
15177;SDS011;7689;53.612;-2.416;2022-11-14T01:41:13;12.97;;;8.93;;
15177;SDS011;7689;53.612;-2.416;2022-11-14T01:43:40;15.03;;;9.67;;
15177;SDS011;7689;53.612;-2.416;2022-11-14T01:46:17;13.20;;;8.83;;
15177;SDS011;7689;53.612;-2.416;2022-11-14T01:51:42;15.87;;;10.03;;
15177;SDS011;7689;53.612;-2.416;2022-11-14T01:54:21;17.33;;;10.83;;
15177;SDS011;7689;53.612;-2.416;2022-11-14T01:57:00;14.23;;;10.30;;
15177;SDS011;7689;53.612;-2.416;2022-11-14T01:59:32;14.50;;;9.83;;
15177;SDS011;7689;53.612;-2.416;2022-11-14T02:02:01;15.83;;;9.90;;
15177;SDS011;7689;53.612;-2.416;2022-11-14T02:04:34;12.67;;;8.50;;
15177;SDS011;7689;53.612;-2.416;2022-11-14T02:07:03;11.93;;;8.00;;
15177;SDS011;7689;53.612;-2.416;2022-11-14T02:09:33;14.63;;;8.20;;
15177;SDS011;7689;53.612;-2.416;2022-11-14T02:12:01;13.00;;;8.73;;
15177;SDS011;7689;53.612;-2.416;2022-11-14T02:14:30;12.57;;;9.13;;
15177;SDS011;7689;53.612;-2.416;2022-11-14T02:16:57;15.17;;;8.87;;
15177;SDS011;7689;53.612;-2.416;2022-11-14T02:19:23;15.10;;;9.70;;
15177;SDS011;7689;53.612;-2.416;2022-11-14T02:21:48;11.70;;;8.37;;
15177;SDS011;7689;53.612;-2.416;2022-11-14T02:24:14;13.40;;;9.60;;
15177;SDS011;7689;53.612;-2.416;2022-11-14T02:26:40;11.90;;;8.77;;
15177;SDS011;7689;53.612;-2.416;2022-11-14T02:29:07;15.50;;;9.73;;
15177;SDS011;7689;53.612;-2.416;2022-11-14T02:31:34;13.57;;;9.13;;
15177;SDS011;7689;53.612;-2.416;2022-11-14T02:34:00;11.07;;;8.30;;
15177;SDS011;7689;53.612;-2.416;2022-11-14T02:36:26;11.57;;;7.93;;
15177;SDS011;7689;53.612;-2.416;2022-11-14T02:38:52;14.03;;;9.50;;
15177;SDS011;7689;53.612;-2.416;2022-11-14T02:41:17;12.50;;;8.30;;
15177;SDS011;7689;53.612;-2.416;2022-11-14T02:43:43;13.53;;;9.60;;
15177;SDS011;7689;53.612;-2.416;2022-11-14T02:46:08;12.70;;;8.80;;
15177;SDS011;7689;53.612;-2.416;2022-11-14T02:48:35;11.83;;;9.37;;
15177;SDS011;7689;53.612;-2.416;2022-11-14T02:51:00;13.27;;;9.33;;
15177;SDS011;7689;53.612;-2.416;2022-11-14T02:53:26;14.20;;;9.33;;
15177;SDS011;7689;53.612;-2.416;2022-11-14T02:55:52;15.67;;;9.20;;
15177;SDS011;7689;53.612;-2.416;2022-11-14T02:58:18;13.60;;;9.93;;
15177;SDS011;7689;53.612;-2.416;2022-11-14T03:00:43;15.63;;;9.80;;
15177;SDS011;7689;53.612;-2.416;2022-11-14T03:03:09;13.73;;;9.17;;
15177;SDS011;7689;53.612;-2.416;2022-11-14T03:05:35;14.43;;;9.20;;
15177;SDS011;7689;53.612;-2.416;2022-11-14T03:08:01;15.37;;;9.87;;
15177;SDS011;7689;53.612;-2.416;2022-11-14T03:10:26;11.60;;;8.40;;
15177;SDS011;7689;53.612;-2.416;2022-11-14T03:12:55;16.57;;;10.50;;
15177;SDS011;7689;53.612;-2.416;2022-11-14T03:15:21;13.20;;;8.80;;
15177;SDS011;7689;53.612;-2.416;2022-11-14T03:17:47;14.67;;;9.47;;
15177;SDS011;7689;53.612;-2.416;2022-11-14T03:20:13;14.83;;;9.33;;
15177;SDS011;7689;53.612;-2.416;2022-11-14T03:22:39;13.40;;;10.00;;
15177;SDS011;7689;53.612;-2.416;2022-11-14T03:25:05;15.37;;;10.70;;
15177;SDS011;7689;53.612;-2.416;2022-11-14T03:27:31;15.47;;;9.67;;
15177;SDS011;7689;53.612;-2.416;2022-11-14T03:29:56;15.07;;;9.27;;
15177;SDS011;7689;53.612;-2.416;2022-11-14T03:32:22;14.13;;;9.20;;
15177;SDS011;7689;53.612;-2.416;2022-11-14T03:34:48;11.60;;;8.70;;
15177;SDS011;7689;53.612;-2.416;2022-11-14T03:37:13;13.10;;;8.57;;
15177;SDS011;7689;53.612;-2.416;2022-11-14T03:39:39;10.43;;;8.70;;
15177;SDS011;7689;53.612;-2.416;2022-11-14T03:42:04;12.57;;;8.83;;
15177;SDS011;7689;53.612;-2.416;2022-11-14T03:44:30;10.50;;;8.40;;
15177;SDS011;7689;53.612;-2.416;2022-11-14T03:46:56;12.77;;;9.00;;
15177;SDS011;7689;53.612;-2.416;2022-11-14T03:49:21;13.83;;;8.97;;
15177;SDS011;7689;53.612;-2.416;2022-11-14T03:51:47;10.97;;;8.77;;
15177;SDS011;7689;53.612;-2.416;2022-11-14T03:54:13;15.60;;;8.73;;
15177;SDS011;7689;53.612;-2.416;2022-11-14T03:56:38;11.90;;;7.80;;
15177;SDS011;7689;53.612;-2.416;2022-11-14T03:59:04;10.60;;;8.53;;
15177;SDS011;7689;53.612;-2.416;2022-11-14T04:01:30;13.60;;;8.63;;
15177;SDS011;7689;53.612;-2.416;2022-11-14T04:03:55;12.97;;;9.40;;
15177;SDS011;7689;53.612;-2.416;2022-11-14T04:06:21;13.00;;;9.13;;
15177;SDS011;7689;53.612;-2.416;2022-11-14T04:08:47;13.80;;;9.20;;
15177;SDS011;7689;53.612;-2.416;2022-11-14T04:11:13;12.53;;;8.63;;
15177;SDS011;7689;53.612;-2.416;2022-11-14T04:13:38;11.23;;;8.80;;
15177;SDS011;7689;53.612;-2.416;2022-11-14T04:16:04;14.27;;;9.83;;
15177;SDS011;7689;53.612;-2.416;2022-11-14T04:18:30;13.93;;;9.20;;
15177;SDS011;7689;53.612;-2.416;2022-11-14T04:20:55;12.70;;;8.77;;
15177;SDS011;7689;53.612;-2.416;2022-11-14T04:23:21;11.73;;;8.60;;
15177;SDS011;7689;53.612;-2.416;2022-11-14T04:25:47;13.93;;;8.97;;
15177;SDS011;7689;53.612;-2.416;2022-11-14T04:28:12;12.77;;;9.00;;
15177;SDS011;7689;53.612;-2.416;2022-11-14T04:30:38;12.23;;;8.63;;
15177;SDS011;7689;53.612;-2.416;2022-11-14T04:33:04;11.53;;;8.17;;
15177;SDS011;7689;53.612;-2.416;2022-11-14T04:35:30;13.30;;;9.63;;
15177;SDS011;7689;53.612;-2.416;2022-11-14T04:37:55;11.17;;;8.30;;
15177;SDS011;7689;53.612;-2.416;2022-11-14T04:40:21;11.37;;;8.43;;
15177;SDS011;7689;53.612;-2.416;2022-11-14T04:42:47;10.57;;;8.00;;
15177;SDS011;7689;53.612;-2.416;2022-11-14T04:45:12;12.47;;;9.07;;
15177;SDS011;7689;53.612;-2.416;2022-11-14T04:47:39;10.77;;;7.97;;
15177;SDS011;7689;53.612;-2.416;2022-11-14T04:50:09;14.33;;;9.00;;
15177;SDS011;7689;53.612;-2.416;2022-11-14T04:52:35;12.40;;;9.63;;
15177;SDS011;7689;53.612;-2.416;2022-11-14T04:55:00;12.50;;;9.33;;
15177;SDS011;7689;53.612;-2.416;2022-11-14T04:57:26;12.67;;;9.17;;
15177;SDS011;7689;53.612;-2.416;2022-11-14T04:59:52;12.97;;;8.70;;
15177;SDS011;7689;53.612;-2.416;2022-11-14T05:02:17;12.17;;;8.67;;
15177;SDS011;7689;53.612;-2.416;2022-11-14T05:04:43;11.90;;;8.87;;
15177;SDS011;7689;53.612;-2.416;2022-11-14T05:07:09;13.10;;;9.07;;
15177;SDS011;7689;53.612;-2.416;2022-11-14T05:09:35;12.70;;;8.53;;
15177;SDS011;7689;53.612;-2.416;2022-11-14T05:12:01;13.30;;;9.67;;
15177;SDS011;7689;53.612;-2.416;2022-11-14T05:14:28;14.97;;;8.63;;
15177;SDS011;7689;53.612;-2.416;2022-11-14T05:16:53;15.00;;;9.43;;
15177;SDS011;7689;53.612;-2.416;2022-11-14T05:19:19;16.40;;;10.20;;
15177;SDS011;7689;53.612;-2.416;2022-11-14T05:21:44;14.43;;;10.17;;
15177;SDS011;7689;53.612;-2.416;2022-11-14T05:24:10;15.23;;;11.50;;
15177;SDS011;7689;53.612;-2.416;2022-11-14T05:26:36;17.37;;;11.80;;
15177;SDS011;7689;53.612;-2.416;2022-11-14T05:29:02;15.67;;;11.43;;
15177;SDS011;7689;53.612;-2.416;2022-11-14T05:31:28;18.00;;;12.93;;
15177;SDS011;7689;53.612;-2.416;2022-11-14T05:33:54;20.27;;;12.80;;
15177;SDS011;7689;53.612;-2.416;2022-11-14T05:36:19;19.20;;;11.87;;
15177;SDS011;7689;53.612;-2.416;2022-11-14T05:38:45;19.43;;;13.07;;
15177;SDS011;7689;53.612;-2.416;2022-11-14T05:41:12;25.00;;;14.10;;
15177;SDS011;7689;53.612;-2.416;2022-11-14T05:43:39;22.67;;;14.40;;
15177;SDS011;7689;53.612;-2.416;2022-11-14T05:46:06;23.77;;;15.10;;
15177;SDS011;7689;53.612;-2.416;2022-11-14T05:48:34;21.73;;;14.00;;
15177;SDS011;7689;53.612;-2.416;2022-11-14T05:51:01;25.47;;;15.80;;
15177;SDS011;7689;53.612;-2.416;2022-11-14T05:53:29;27.40;;;16.20;;
15177;SDS011;7689;53.612;-2.416;2022-11-14T05:56:00;27.70;;;17.10;;
15177;SDS011;7689;53.612;-2.416;2022-11-14T05:58:28;33.90;;;20.00;;
15177;SDS011;7689;53.612;-2.416;2022-11-14T06:01:02;31.80;;;18.57;;
15177;SDS011;7689;53.612;-2.416;2022-11-14T06:03:31;26.60;;;16.33;;
15177;SDS011;7689;53.612;-2.416;2022-11-14T06:06:01;28.63;;;16.47;;
15177;SDS011;7689;53.612;-2.416;2022-11-14T06:08:29;28.40;;;17.20;;
15177;SDS011;7689;53.612;-2.416;2022-11-14T06:10:55;33.43;;;19.93;;
15177;SDS011;7689;53.612;-2.416;2022-11-14T06:13:25;32.57;;;19.23;;
15177;SDS011;7689;53.612;-2.416;2022-11-14T06:15:50;30.47;;;17.83;;
15177;SDS011;7689;53.612;-2.416;2022-11-14T06:18:16;25.80;;;15.07;;
15177;SDS011;7689;53.612;-2.416;2022-11-14T06:20:42;32.33;;;19.03;;
15177;SDS011;7689;53.612;-2.416;2022-11-14T06:23:07;30.53;;;18.70;;
15177;SDS011;7689;53.612;-2.416;2022-11-14T06:25:33;28.27;;;16.70;;
15177;SDS011;7689;53.612;-2.416;2022-11-14T06:27:59;32.93;;;19.60;;
15177;SDS011;7689;53.612;-2.416;2022-11-14T06:30:24;30.33;;;18.47;;
15177;SDS011;7689;53.612;-2.416;2022-11-14T06:32:55;34.30;;;20.43;;
15177;SDS011;7689;53.612;-2.416;2022-11-14T06:35:22;33.53;;;19.27;;
15177;SDS011;7689;53.612;-2.416;2022-11-14T06:37:47;32.87;;;18.67;;
15177;SDS011;7689;53.612;-2.416;2022-11-14T06:40:13;32.00;;;18.50;;
15177;SDS011;7689;53.612;-2.416;2022-11-14T06:42:39;34.23;;;18.57;;
15177;SDS011;7689;53.612;-2.416;2022-11-14T06:45:04;23.67;;;15.40;;
15177;SDS011;7689;53.612;-2.416;2022-11-14T06:47:30;27.70;;;16.43;;
15177;SDS011;7689;53.612;-2.416;2022-11-14T06:49:56;28.30;;;16.90;;
15177;SDS011;7689;53.612;-2.416;2022-11-14T06:52:22;26.73;;;16.07;;
15177;SDS011;7689;53.612;-2.416;2022-11-14T06:54:47;27.57;;;16.27;;
15177;SDS011;7689;53.612;-2.416;2022-11-14T06:57:13;32.93;;;19.20;;
15177;SDS011;7689;53.612;-2.416;2022-11-14T06:59:38;21.83;;;14.87;;
15177;SDS011;7689;53.612;-2.416;2022-11-14T07:02:04;32.37;;;19.37;;
15177;SDS011;7689;53.612;-2.416;2022-11-14T07:04:30;30.80;;;19.43;;
15177;SDS011;7689;53.612;-2.416;2022-11-14T07:06:56;28.17;;;18.37;;
15177;SDS011;7689;53.612;-2.416;2022-11-14T07:09:21;29.17;;;18.13;;
15177;SDS011;7689;53.612;-2.416;2022-11-14T07:11:47;31.50;;;18.73;;
15177;SDS011;7689;53.612;-2.416;2022-11-14T07:14:13;30.13;;;16.73;;
15177;SDS011;7689;53.612;-2.416;2022-11-14T07:16:38;33.03;;;18.67;;
15177;SDS011;7689;53.612;-2.416;2022-11-14T07:19:04;28.73;;;17.85;;
15177;SDS011;7689;53.612;-2.416;2022-11-14T07:21:33;26.97;;;16.83;;
15177;SDS011;7689;53.612;-2.416;2022-11-14T07:24:00;29.87;;;19.07;;
15177;SDS011;7689;53.612;-2.416;2022-11-14T07:26:25;30.20;;;18.30;;
15177;SDS011;7689;53.612;-2.416;2022-11-14T07:28:51;30.17;;;17.53;;
15177;SDS011;7689;53.612;-2.416;2022-11-14T07:31:18;29.87;;;18.33;;
15177;SDS011;7689;53.612;-2.416;2022-11-14T07:33:44;27.63;;;17.37;;
15177;SDS011;7689;53.612;-2.416;2022-11-14T07:36:11;32.17;;;20.10;;
15177;SDS011;7689;53.612;-2.416;2022-11-14T07:38:37;27.33;;;17.47;;
15177;SDS011;7689;53.612;-2.416;2022-11-14T07:41:05;29.15;;;18.25;;
15177;SDS011;7689;53.612;-2.416;2022-11-14T07:43:32;30.55;;;17.55;;
15177;SDS011;7689;53.612;-2.416;2022-11-14T07:46:02;35.45;;;19.05;;
15177;SDS011;7689;53.612;-2.416;2022-11-14T07:48:38;27.93;;;17.20;;
15177;SDS011;7689;53.612;-2.416;2022-11-14T07:51:05;30.77;;;18.70;;
15177;SDS011;7689;53.612;-2.416;2022-11-14T07:53:33;30.27;;;17.70;;
15177;SDS011;7689;53.612;-2.416;2022-11-14T07:56:04;30.63;;;17.70;;
15177;SDS011;7689;53.612;-2.416;2022-11-14T07:58:33;32.57;;;19.47;;
15177;SDS011;7689;53.612;-2.416;2022-11-14T08:01:00;30.52;;;18.55;;
15177;SDS011;7689;53.612;-2.416;2022-11-14T08:03:27;29.80;;;18.90;;
15177;SDS011;7689;53.612;-2.416;2022-11-14T08:05:59;33.50;;;20.00;;
15177;SDS011;7689;53.612;-2.416;2022-11-14T08:08:25;34.27;;;18.73;;
15177;SDS011;7689;53.612;-2.416;2022-11-14T08:10:52;31.33;;;19.40;;
15177;SDS011;7689;53.612;-2.416;2022-11-14T08:13:20;31.27;;;18.70;;
15177;SDS011;7689;53.612;-2.416;2022-11-14T08:15:46;31.83;;;18.87;;
15177;SDS011;7689;53.612;-2.416;2022-11-14T08:18:11;31.33;;;18.35;;
15177;SDS011;7689;53.612;-2.416;2022-11-14T08:20:37;31.17;;;19.23;;
15177;SDS011;7689;53.612;-2.416;2022-11-14T08:23:03;33.63;;;19.17;;
15177;SDS011;7689;53.612;-2.416;2022-11-14T08:25:31;32.77;;;19.53;;
15177;SDS011;7689;53.612;-2.416;2022-11-14T08:27:57;32.63;;;19.90;;
15177;SDS011;7689;53.612;-2.416;2022-11-14T08:30:23;32.63;;;18.63;;
15177;SDS011;7689;53.612;-2.416;2022-11-14T08:32:49;33.80;;;19.47;;
15177;SDS011;7689;53.612;-2.416;2022-11-14T08:35:15;37.63;;;20.47;;
15177;SDS011;7689;53.612;-2.416;2022-11-14T08:37:40;32.57;;;18.77;;
15177;SDS011;7689;53.612;-2.416;2022-11-14T08:40:06;35.37;;;21.00;;
15177;SDS011;7689;53.612;-2.416;2022-11-14T08:42:32;37.20;;;19.00;;
15177;SDS011;7689;53.612;-2.416;2022-11-14T08:44:58;33.83;;;20.37;;
15177;SDS011;7689;53.612;-2.416;2022-11-14T08:47:24;32.37;;;18.80;;
15177;SDS011;7689;53.612;-2.416;2022-11-14T08:49:49;34.43;;;19.40;;
15177;SDS011;7689;53.612;-2.416;2022-11-14T08:52:15;31.20;;;19.33;;
15177;SDS011;7689;53.612;-2.416;2022-11-14T08:54:41;32.80;;;19.40;;
15177;SDS011;7689;53.612;-2.416;2022-11-14T08:57:06;27.77;;;17.87;;
15177;SDS011;7689;53.612;-2.416;2022-11-14T08:59:32;30.67;;;18.20;;
15177;SDS011;7689;53.612;-2.416;2022-11-14T09:01:58;30.30;;;18.40;;
15177;SDS011;7689;53.612;-2.416;2022-11-14T09:04:24;32.33;;;19.53;;
15177;SDS011;7689;53.612;-2.416;2022-11-14T09:06:49;29.03;;;18.97;;
15177;SDS011;7689;53.612;-2.416;2022-11-14T09:09:15;34.80;;;18.40;;
15177;SDS011;7689;53.612;-2.416;2022-11-14T09:11:42;29.03;;;16.67;;
15177;SDS011;7689;53.612;-2.416;2022-11-14T09:14:08;33.47;;;18.17;;
15177;SDS011;7689;53.612;-2.416;2022-11-14T09:16:34;28.17;;;16.87;;
15177;SDS011;7689;53.612;-2.416;2022-11-14T09:18:59;29.40;;;17.30;;
15177;SDS011;7689;53.612;-2.416;2022-11-14T09:21:25;32.57;;;16.57;;
15177;SDS011;7689;53.612;-2.416;2022-11-14T09:23:51;31.20;;;16.57;;
15177;SDS011;7689;53.612;-2.416;2022-11-14T09:26:16;30.70;;;17.13;;
15177;SDS011;7689;53.612;-2.416;2022-11-14T09:28:43;27.90;;;16.60;;
15177;SDS011;7689;53.612;-2.416;2022-11-14T09:31:10;25.93;;;14.30;;
15177;SDS011;7689;53.612;-2.416;2022-11-14T09:33:37;24.20;;;14.57;;
15177;SDS011;7689;53.612;-2.416;2022-11-14T09:36:04;28.83;;;14.67;;
15177;SDS011;7689;53.612;-2.416;2022-11-14T09:38:31;23.77;;;15.00;;
15177;SDS011;7689;53.612;-2.416;2022-11-14T09:46:54;26.47;;;15.90;;
15177;SDS011;7689;53.612;-2.416;2022-11-14T09:49:29;28.23;;;15.00;;
15177;SDS011;7689;53.612;-2.416;2022-11-14T09:54:32;26.47;;;14.83;;
15177;SDS011;7689;53.612;-2.416;2022-11-14T09:57:08;22.43;;;15.63;;
15177;SDS011;7689;53.612;-2.416;2022-11-14T09:59:39;20.57;;;14.13;;
15177;SDS011;7689;53.612;-2.416;2022-11-14T10:02:09;18.60;;;13.63;;
15177;SDS011;7689;53.612;-2.416;2022-11-14T10:10:44;18.23;;;12.67;;
15177;SDS011;7689;53.612;-2.416;2022-11-14T10:18:17;21.90;;;14.27;;
15177;SDS011;7689;53.612;-2.416;2022-11-14T10:21:08;22.60;;;13.60;;
15177;SDS011;7689;53.612;-2.416;2022-11-14T10:26:59;25.33;;;15.77;;
15177;SDS011;7689;53.612;-2.416;2022-11-14T10:38:00;18.67;;;12.77;;
15177;SDS011;7689;53.612;-2.416;2022-11-14T10:40:46;17.50;;;12.83;;
15177;SDS011;7689;53.612;-2.416;2022-11-14T10:49:14;20.90;;;14.53;;
15177;SDS011;7689;53.612;-2.416;2022-11-14T10:51:58;19.90;;;13.03;;
15177;SDS011;7689;53.612;-2.416;2022-11-14T10:57:15;16.17;;;11.23;;
15177;SDS011;7689;53.612;-2.416;2022-11-14T10:59:43;16.57;;;10.67;;
15177;SDS011;7689;53.612;-2.416;2022-11-14T11:02:09;14.20;;;10.97;;
15177;SDS011;7689;53.612;-2.416;2022-11-14T11:04:35;17.17;;;11.43;;
15177;SDS011;7689;53.612;-2.416;2022-11-14T11:09:31;15.10;;;10.53;;
15177;SDS011;7689;53.612;-2.416;2022-11-14T11:12:18;17.70;;;11.50;;
15177;SDS011;7689;53.612;-2.416;2022-11-14T11:14:47;16.63;;;11.63;;
15177;SDS011;7689;53.612;-2.416;2022-11-14T11:17:18;14.05;;;11.20;;
15177;SDS011;7689;53.612;-2.416;2022-11-14T11:19:46;17.67;;;11.75;;
15177;SDS011;7689;53.612;-2.416;2022-11-14T11:22:24;17.20;;;11.95;;
15177;SDS011;7689;53.612;-2.416;2022-11-14T11:24:58;18.27;;;11.30;;
15177;SDS011;7689;53.612;-2.416;2022-11-14T11:27:25;18.15;;;11.13;;
15177;SDS011;7689;53.612;-2.416;2022-11-14T11:32:27;14.95;;;10.68;;
15177;SDS011;7689;53.612;-2.416;2022-11-14T11:34:53;15.20;;;9.75;;
15177;SDS011;7689;53.612;-2.416;2022-11-14T11:37:22;12.00;;;9.02;;
15177;SDS011;7689;53.612;-2.416;2022-11-14T11:39:55;18.08;;;10.57;;
15177;SDS011;7689;53.612;-2.416;2022-11-14T11:45:31;15.60;;;9.27;;
15177;SDS011;7689;53.612;-2.416;2022-11-14T11:48:00;13.18;;;8.45;;
15177;SDS011;7689;53.612;-2.416;2022-11-14T11:50:34;11.55;;;8.15;;
15177;SDS011;7689;53.612;-2.416;2022-11-14T11:55:48;11.68;;;8.23;;
15177;SDS011;7689;53.612;-2.416;2022-11-14T12:01:11;11.50;;;8.40;;
15177;SDS011;7689;53.612;-2.416;2022-11-14T12:03:38;11.60;;;8.02;;
15177;SDS011;7689;53.612;-2.416;2022-11-14T12:06:18;13.48;;;9.38;;
15177;SDS011;7689;53.612;-2.416;2022-11-14T12:11:44;10.98;;;8.60;;
15177;SDS011;7689;53.612;-2.416;2022-11-14T12:14:26;11.35;;;8.85;;
15177;SDS011;7689;53.612;-2.416;2022-11-14T12:30:45;11.10;;;8.20;;
15177;SDS011;7689;53.612;-2.416;2022-11-14T12:33:16;11.63;;;8.00;;
15177;SDS011;7689;53.612;-2.416;2022-11-14T12:35:48;13.38;;;8.45;;
15177;SDS011;7689;53.612;-2.416;2022-11-14T12:38:17;12.23;;;8.73;;
15177;SDS011;7689;53.612;-2.416;2022-11-14T12:40:51;11.17;;;8.60;;
15177;SDS011;7689;53.612;-2.416;2022-11-14T12:46:05;14.80;;;8.57;;
15177;SDS011;7689;53.612;-2.416;2022-11-14T12:48:38;11.73;;;8.52;;
15177;SDS011;7689;53.612;-2.416;2022-11-14T12:53:57;12.50;;;9.20;;
15177;SDS011;7689;53.612;-2.416;2022-11-14T13:01:26;12.98;;;8.57;;
15177;SDS011;7689;53.612;-2.416;2022-11-14T13:11:53;14.43;;;9.55;;
15177;SDS011;7689;53.612;-2.416;2022-11-14T13:14:48;16.55;;;9.85;;
15177;SDS011;7689;53.612;-2.416;2022-11-14T13:17:34;14.00;;;9.32;;
15177;SDS011;7689;53.612;-2.416;2022-11-14T13:33:40;12.00;;;8.52;;
15177;SDS011;7689;53.612;-2.416;2022-11-14T13:36:08;10.93;;;8.55;;
15177;SDS011;7689;53.612;-2.416;2022-11-14T13:41:36;14.25;;;7.85;;
15177;SDS011;7689;53.612;-2.416;2022-11-14T13:52:06;11.52;;;8.40;;
15177;SDS011;7689;53.612;-2.416;2022-11-14T13:54:32;12.48;;;7.78;;
15177;SDS011;7689;53.612;-2.416;2022-11-14T14:02:33;9.45;;;7.93;;
15177;SDS011;7689;53.612;-2.416;2022-11-14T14:13:33;12.17;;;8.00;;
15177;SDS011;7689;53.612;-2.416;2022-11-14T14:30:24;10.50;;;8.15;;
15177;SDS011;7689;53.612;-2.416;2022-11-14T14:33:07;9.88;;;8.55;;
15177;SDS011;7689;53.612;-2.416;2022-11-14T14:35:36;14.35;;;8.98;;
15177;SDS011;7689;53.612;-2.416;2022-11-14T14:38:09;13.10;;;8.18;;
15177;SDS011;7689;53.612;-2.416;2022-11-14T14:40:37;13.05;;;8.82;;
15177;SDS011;7689;53.612;-2.416;2022-11-14T14:43:05;10.93;;;7.88;;
15177;SDS011;7689;53.612;-2.416;2022-11-14T14:45:35;14.27;;;8.85;;
15177;SDS011;7689;53.612;-2.416;2022-11-14T14:48:13;13.88;;;8.95;;
15177;SDS011;7689;53.612;-2.416;2022-11-14T14:50:50;9.77;;;8.20;;
15177;SDS011;7689;53.612;-2.416;2022-11-14T14:53:35;11.65;;;8.88;;
15177;SDS011;7689;53.612;-2.416;2022-11-14T14:56:02;13.35;;;9.75;;
15177;SDS011;7689;53.612;-2.416;2022-11-14T14:58:31;13.77;;;8.63;;
15177;SDS011;7689;53.612;-2.416;2022-11-14T15:03:34;14.52;;;9.52;;
15177;SDS011;7689;53.612;-2.416;2022-11-14T15:06:03;15.27;;;9.07;;
15177;SDS011;7689;53.612;-2.416;2022-11-14T15:08:34;12.48;;;9.10;;
15177;SDS011;7689;53.612;-2.416;2022-11-14T15:11:02;11.90;;;8.52;;
15177;SDS011;7689;53.612;-2.416;2022-11-14T15:13:29;10.63;;;8.95;;
15177;SDS011;7689;53.612;-2.416;2022-11-14T15:15:55;12.05;;;9.40;;
15177;SDS011;7689;53.612;-2.416;2022-11-14T15:18:26;12.55;;;9.35;;
15177;SDS011;7689;53.612;-2.416;2022-11-14T15:21:40;10.93;;;9.65;;
15177;SDS011;7689;53.612;-2.416;2022-11-14T15:23:56;13.85;;;11.32;;
15177;SDS011;7689;53.612;-2.416;2022-11-14T15:26:43;16.00;;;11.75;;
15177;SDS011;7689;53.612;-2.416;2022-11-14T15:31:50;12.87;;;10.93;;
15177;SDS011;7689;53.612;-2.416;2022-11-14T15:34:22;13.77;;;10.80;;
15177;SDS011;7689;53.612;-2.416;2022-11-14T15:39:35;14.65;;;10.10;;
15177;SDS011;7689;53.612;-2.416;2022-11-14T15:42:26;14.18;;;9.82;;
15177;SDS011;7689;53.612;-2.416;2022-11-14T15:44:55;12.87;;;9.97;;
15177;SDS011;7689;53.612;-2.416;2022-11-14T15:47:24;12.75;;;8.50;;
15177;SDS011;7689;53.612;-2.416;2022-11-14T15:50:01;9.30;;;7.82;;
15177;SDS011;7689;53.612;-2.416;2022-11-14T15:52:39;11.50;;;8.75;;
15177;SDS011;7689;53.612;-2.416;2022-11-14T15:55:16;13.77;;;9.52;;
15177;SDS011;7689;53.612;-2.416;2022-11-14T15:57:45;10.32;;;9.02;;
15177;SDS011;7689;53.612;-2.416;2022-11-14T16:00:11;11.10;;;8.55;;
15177;SDS011;7689;53.612;-2.416;2022-11-14T16:02:42;9.85;;;8.45;;
15177;SDS011;7689;53.612;-2.416;2022-11-14T16:05:11;12.52;;;8.88;;
15177;SDS011;7689;53.612;-2.416;2022-11-14T16:07:38;14.90;;;9.70;;
15177;SDS011;7689;53.612;-2.416;2022-11-14T16:10:14;11.80;;;9.93;;
15177;SDS011;7689;53.612;-2.416;2022-11-14T16:12:41;11.52;;;8.70;;
15177;SDS011;7689;53.612;-2.416;2022-11-14T16:15:07;12.40;;;8.90;;
15177;SDS011;7689;53.612;-2.416;2022-11-14T16:17:34;13.05;;;8.90;;
15177;SDS011;7689;53.612;-2.416;2022-11-14T16:20:02;10.43;;;8.57;;
15177;SDS011;7689;53.612;-2.416;2022-11-14T16:22:29;9.60;;;8.48;;
15177;SDS011;7689;53.612;-2.416;2022-11-14T16:24:55;14.70;;;9.45;;
15177;SDS011;7689;53.612;-2.416;2022-11-14T16:27:24;10.07;;;8.27;;
15177;SDS011;7689;53.612;-2.416;2022-11-14T16:29:49;10.75;;;8.25;;
15177;SDS011;7689;53.612;-2.416;2022-11-14T16:32:15;11.73;;;8.55;;
15177;SDS011;7689;53.612;-2.416;2022-11-14T16:34:41;13.80;;;8.25;;
15177;SDS011;7689;53.612;-2.416;2022-11-14T16:37:08;10.85;;;9.00;;
15177;SDS011;7689;53.612;-2.416;2022-11-14T16:39:37;12.20;;;8.57;;
15177;SDS011;7689;53.612;-2.416;2022-11-14T16:42:03;11.57;;;9.00;;
15177;SDS011;7689;53.612;-2.416;2022-11-14T16:44:30;11.07;;;9.00;;
15177;SDS011;7689;53.612;-2.416;2022-11-14T16:46:56;14.85;;;9.70;;
15177;SDS011;7689;53.612;-2.416;2022-11-14T16:49:22;10.82;;;8.52;;
15177;SDS011;7689;53.612;-2.416;2022-11-14T16:51:49;13.93;;;9.32;;
15177;SDS011;7689;53.612;-2.416;2022-11-14T16:54:16;12.55;;;8.65;;
15177;SDS011;7689;53.612;-2.416;2022-11-14T16:56:42;11.25;;;9.45;;
15177;SDS011;7689;53.612;-2.416;2022-11-14T16:59:09;12.25;;;8.82;;
15177;SDS011;7689;53.612;-2.416;2022-11-14T17:01:35;12.90;;;8.93;;
15177;SDS011;7689;53.612;-2.416;2022-11-14T17:04:01;11.27;;;8.93;;
15177;SDS011;7689;53.612;-2.416;2022-11-14T17:06:27;12.20;;;9.35;;